createdAt,value
2022-11-21T00:01:31.803Z,91.10
2022-11-21T00:04:00.686Z,90.90
2022-11-21T00:06:29.619Z,90.60
2022-11-21T00:08:58.510Z,91.10
2022-11-21T00:11:27.523Z,92.20
2022-11-21T00:13:56.355Z,91.10
2022-11-21T00:16:25.354Z,91.60
2022-11-21T00:18:54.292Z,92.20
2022-11-21T00:21:23.199Z,91.40
2022-11-21T00:23:53.671Z,90.80
2022-11-21T00:26:22.544Z,90.00
2022-11-21T00:28:51.412Z,91.30
2022-11-21T00:31:25.792Z,90.80
2022-11-21T00:33:54.726Z,90.20
2022-11-21T00:36:23.618Z,89.90
2022-11-21T00:38:52.532Z,90.00
2022-11-21T00:41:21.590Z,89.30
2022-11-21T00:43:50.580Z,88.40
2022-11-21T00:46:19.652Z,88.70
2022-11-21T00:48:48.578Z,88.50
2022-11-21T00:51:17.455Z,89.00
2022-11-21T00:53:46.457Z,87.50
2022-11-21T00:56:15.400Z,89.00
2022-11-21T00:58:44.304Z,87.40
2022-11-21T01:01:16.256Z,87.60
2022-11-21T01:03:47.294Z,87.70
2022-11-21T01:06:17.733Z,88.30
2022-11-21T01:08:47.071Z,86.50
2022-11-21T01:11:18.883Z,86.80
2022-11-21T01:13:48.787Z,85.10
2022-11-21T01:16:23.663Z,85.00
2022-11-21T01:18:53.069Z,84.50
2022-11-21T01:21:40.962Z,83.60
2022-11-21T01:24:13.467Z,83.80
2022-11-21T01:26:42.449Z,83.20
2022-11-21T01:29:11.331Z,83.20
2022-11-21T01:31:40.213Z,82.20
2022-11-21T01:34:12.845Z,82.00
2022-11-21T01:36:41.868Z,81.80
2022-11-21T01:39:12.864Z,81.20
2022-11-21T01:41:46.073Z,81.50
2022-11-21T01:44:23.761Z,80.60
2022-11-21T01:46:53.793Z,79.30
2022-11-21T01:49:30.774Z,79.70
2022-11-21T01:52:07.720Z,79.90
2022-11-21T01:54:45.866Z,79.00
2022-11-21T01:57:21.773Z,78.00
2022-11-21T01:59:50.613Z,75.80
2022-11-21T02:02:22.468Z,78.60
2022-11-21T02:04:53.777Z,78.10
2022-11-21T02:07:25.695Z,76.20
2022-11-21T02:09:59.020Z,78.60
2022-11-21T02:12:41.699Z,77.60
2022-11-21T02:15:14.502Z,75.40
2022-11-21T02:17:44.005Z,77.30
2022-11-21T02:20:17.802Z,76.70
2022-11-21T02:22:54.149Z,76.80
2022-11-21T02:25:35.538Z,73.90
2022-11-21T02:28:07.925Z,72.60
2022-11-21T02:30:40.456Z,75.70
2022-11-21T02:33:16.078Z,71.20
2022-11-21T02:35:45.330Z,74.60
2022-11-21T02:38:17.273Z,73.50
2022-11-21T02:41:27.499Z,73.00
2022-11-21T02:44:32.506Z,72.70
2022-11-21T02:47:01.391Z,72.40
2022-11-21T02:49:43.687Z,72.90
2022-11-21T02:52:12.711Z,72.50
2022-11-21T02:54:41.594Z,71.90
2022-11-21T02:57:10.573Z,74.30
2022-11-21T02:59:39.505Z,71.50
2022-11-21T03:02:08.413Z,72.50
2022-11-21T03:04:37.374Z,73.40
2022-11-21T03:07:06.331Z,73.60
2022-11-21T03:09:35.201Z,70.70
2022-11-21T03:12:08.667Z,73.50
2022-11-21T03:14:38.437Z,72.50
2022-11-21T03:17:07.441Z,72.60
2022-11-21T03:19:36.383Z,72.40
2022-11-21T03:22:05.843Z,73.30
2022-11-21T03:24:34.868Z,72.40
2022-11-21T03:27:03.859Z,72.80
2022-11-21T03:29:32.889Z,72.20
2022-11-21T03:32:01.937Z,71.70
2022-11-21T03:34:30.799Z,72.10
2022-11-21T03:36:59.697Z,69.30
2022-11-21T03:39:28.649Z,71.10
2022-11-21T03:41:57.921Z,70.70
2022-11-21T03:44:27.079Z,71.50
2022-11-21T03:46:56.171Z,70.10
2022-11-21T03:49:25.063Z,72.00
2022-11-21T03:51:53.980Z,72.10
2022-11-21T03:54:22.923Z,68.50
2022-11-21T03:56:51.834Z,68.60
2022-11-21T03:59:20.818Z,71.00
2022-11-21T04:01:49.732Z,67.40
2022-11-21T04:04:18.758Z,65.70
2022-11-21T04:06:47.713Z,64.20
2022-11-21T04:09:16.642Z,70.20
2022-11-21T04:11:45.585Z,70.60
2022-11-21T04:14:14.443Z,70.90
2022-11-21T04:16:43.294Z,71.00
2022-11-21T04:19:12.184Z,70.60
2022-11-21T04:21:43.988Z,70.50
2022-11-21T04:24:13.164Z,68.00
2022-11-21T04:26:42.257Z,67.60
2022-11-21T04:29:11.335Z,68.90
2022-11-21T04:31:40.208Z,69.00
2022-11-21T04:34:12.136Z,63.30
2022-11-21T04:36:43.892Z,67.70
2022-11-21T04:39:12.801Z,64.00
2022-11-21T04:41:41.643Z,64.40
2022-11-21T04:44:10.515Z,63.90
2022-11-21T04:46:39.587Z,67.90
2022-11-21T04:49:08.573Z,67.70
2022-11-21T04:51:37.459Z,68.00
2022-11-21T04:54:06.487Z,68.00
2022-11-21T04:56:35.376Z,66.70
2022-11-21T04:59:04.318Z,68.10
2022-11-21T05:01:33.229Z,66.00
2022-11-21T05:04:02.073Z,68.00
2022-11-21T05:06:31.060Z,68.60
2022-11-21T05:08:59.918Z,68.50
2022-11-21T05:11:47.074Z,69.30
2022-11-21T05:14:16.954Z,68.20
2022-11-21T05:16:45.791Z,68.50
2022-11-21T05:19:14.793Z,67.90
2022-11-21T05:21:43.709Z,68.30
2022-11-21T05:24:12.614Z,68.10
2022-11-21T05:26:41.666Z,61.80
2022-11-21T05:29:10.571Z,64.50
2022-11-21T05:31:39.517Z,67.10
2022-11-21T05:34:08.523Z,66.60
2022-11-21T05:36:37.421Z,63.10
2022-11-21T05:39:07.016Z,66.60
2022-11-21T05:41:35.958Z,66.10
2022-11-21T05:44:04.875Z,64.20
2022-11-21T05:46:33.861Z,65.20
2022-11-21T05:49:02.810Z,65.00
2022-11-21T05:51:31.745Z,65.80
2022-11-21T05:54:01.579Z,63.10
2022-11-21T05:56:30.695Z,61.90
2022-11-21T05:59:00.335Z,64.20
2022-11-21T06:01:47.479Z,64.30
2022-11-21T06:04:16.607Z,64.10
2022-11-21T06:06:45.478Z,62.70
2022-11-21T06:09:14.347Z,64.40
2022-11-21T06:11:43.186Z,62.00
2022-11-21T06:14:12.049Z,63.30
2022-11-21T06:16:43.557Z,63.50
2022-11-21T06:19:12.443Z,59.10
2022-11-21T06:21:42.148Z,59.60
2022-11-21T06:24:16.052Z,58.90
2022-11-21T06:26:48.364Z,62.20
2022-11-21T06:29:17.944Z,62.80
2022-11-21T06:31:46.956Z,58.20
2022-11-21T06:34:15.975Z,61.70
2022-11-21T06:36:45.889Z,62.20
2022-11-21T06:39:14.895Z,59.90
2022-11-21T06:41:45.444Z,62.40
2022-11-21T06:44:14.266Z,61.00
2022-11-21T06:46:45.870Z,62.80
2022-11-21T06:49:18.748Z,62.50
2022-11-21T06:51:47.654Z,61.00
2022-11-21T06:54:17.172Z,60.10
2022-11-21T06:56:46.491Z,61.60
2022-11-21T06:59:15.525Z,61.80
2022-11-21T07:01:44.445Z,61.30
2022-11-21T07:04:13.779Z,57.70
2022-11-21T07:06:42.708Z,61.70
2022-11-21T07:09:32.100Z,61.40
2022-11-21T07:12:22.134Z,60.30
2022-11-21T07:14:51.078Z,58.80
2022-11-21T07:17:20.017Z,57.90
2022-11-21T07:19:49.980Z,59.10
2022-11-21T07:22:18.857Z,59.20
2022-11-21T07:24:47.779Z,58.70
2022-11-21T07:27:16.647Z,60.20
2022-11-21T07:29:45.508Z,59.70
2022-11-21T07:32:14.424Z,60.20
2022-11-21T07:34:43.344Z,58.70
2022-11-21T07:37:12.280Z,59.20
2022-11-21T07:39:41.213Z,59.30
2022-11-21T07:42:10.116Z,56.90
2022-11-21T07:44:39.038Z,58.20
2022-11-21T07:47:07.937Z,59.00
2022-11-21T07:49:36.846Z,56.60
2022-11-21T07:52:05.906Z,56.80
2022-11-21T07:54:34.775Z,57.90
2022-11-21T07:57:03.963Z,55.20
2022-11-21T07:59:32.866Z,56.30
2022-11-21T08:02:01.737Z,59.00
2022-11-21T08:04:31.106Z,55.70
2022-11-21T08:07:00.088Z,56.20
2022-11-21T08:09:35.977Z,58.90
2022-11-21T08:12:08.010Z,59.10
2022-11-21T08:14:37.032Z,58.00
2022-11-21T08:17:07.211Z,57.50
2022-11-21T08:19:36.547Z,55.60
2022-11-21T08:22:05.506Z,57.50
2022-11-21T08:24:34.411Z,59.40
2022-11-21T08:27:03.483Z,59.60
2022-11-21T08:29:32.353Z,56.40
2022-11-21T08:32:01.185Z,57.20
2022-11-21T08:34:33.745Z,58.00
2022-11-21T08:37:03.405Z,59.10
2022-11-21T08:39:32.595Z,60.10
2022-11-21T08:42:04.342Z,59.90
2022-11-21T08:44:36.768Z,60.10
2022-11-21T08:47:06.977Z,59.90
2022-11-21T08:49:37.003Z,59.80
2022-11-21T08:52:06.068Z,61.40
2022-11-21T08:54:34.990Z,58.20
2022-11-21T08:57:03.919Z,60.00
2022-11-21T08:59:33.035Z,59.60
2022-11-21T09:02:01.985Z,60.50
2022-11-21T09:04:31.101Z,59.70
2022-11-21T09:07:00.172Z,60.70
2022-11-21T09:09:29.103Z,59.80
2022-11-21T09:11:58.022Z,60.90
2022-11-21T09:14:45.078Z,61.70
2022-11-21T09:17:33.893Z,61.60
2022-11-21T09:20:02.889Z,61.60
2022-11-21T09:22:31.896Z,62.10
2022-11-21T09:25:00.854Z,59.60
2022-11-21T09:27:29.735Z,61.00
2022-11-21T09:29:58.939Z,61.50
2022-11-21T09:32:27.818Z,62.10
2022-11-21T09:34:56.700Z,61.30
2022-11-21T09:37:26.107Z,61.60
2022-11-21T09:39:54.963Z,62.30
2022-11-21T09:42:54.389Z,62.50
2022-11-21T09:45:34.243Z,61.00
2022-11-21T09:48:15.004Z,62.60
2022-11-21T09:50:53.793Z,63.00
2022-11-21T09:53:30.686Z,63.00
2022-11-21T09:56:12.801Z,63.20
2022-11-21T09:58:52.891Z,63.50
2022-11-21T10:01:21.776Z,63.50
2022-11-21T10:03:56.018Z,63.60
2022-11-21T10:06:32.964Z,64.00
2022-11-21T10:09:24.805Z,63.50
2022-11-21T10:12:11.969Z,63.20
2022-11-21T10:15:08.018Z,64.20
2022-11-21T10:17:58.302Z,64.40
2022-11-21T10:20:48.937Z,64.80
2022-11-21T10:23:39.037Z,64.90
2022-11-21T10:26:37.020Z,65.30
2022-11-21T10:29:23.722Z,65.20
2022-11-21T10:31:56.079Z,65.60
2022-11-21T10:34:31.566Z,65.40
2022-11-21T10:37:27.275Z,65.60
2022-11-21T10:39:57.883Z,65.30
2022-11-21T10:42:45.788Z,65.50
2022-11-21T10:45:19.776Z,65.50
2022-11-21T10:47:54.100Z,65.70
2022-11-21T10:51:03.659Z,65.70
2022-11-21T10:53:51.232Z,66.60
2022-11-21T10:56:24.680Z,66.30
2022-11-21T10:58:59.190Z,66.50
2022-11-21T11:01:34.106Z,67.00
2022-11-21T11:04:29.016Z,66.90
2022-11-21T11:07:01.027Z,67.30
2022-11-21T11:09:35.733Z,67.30
2022-11-21T11:12:26.282Z,67.20
2022-11-21T11:14:57.691Z,67.60
2022-11-21T11:17:32.920Z,67.30
2022-11-21T11:20:06.453Z,67.40
2022-11-21T11:22:35.451Z,67.60
2022-11-21T11:25:06.623Z,67.70
2022-11-21T11:27:38.984Z,67.90
2022-11-21T11:30:09.400Z,68.10
2022-11-21T11:32:42.683Z,68.30
2022-11-21T11:35:24.481Z,68.60
2022-11-21T11:38:04.570Z,68.80
2022-11-21T11:40:45.129Z,68.80
2022-11-21T11:44:50.471Z,69.30
2022-11-21T11:47:32.622Z,71.50
2022-11-21T11:50:23.034Z,68.40
2022-11-21T11:53:09.975Z,71.00
2022-11-21T11:55:51.065Z,69.30
2022-11-21T11:58:26.892Z,68.90
2022-11-21T12:01:01.872Z,71.00
2022-11-21T12:03:47.135Z,70.10
2022-11-21T12:07:17.973Z,70.10
2022-11-21T12:10:16.577Z,69.70
2022-11-21T12:12:54.056Z,71.20
2022-11-21T12:15:54.537Z,71.30
2022-11-21T12:18:52.784Z,70.50
2022-11-21T12:21:22.171Z,70.70
2022-11-21T12:23:52.289Z,70.20
2022-11-21T12:26:39.496Z,70.10
2022-11-21T12:29:33.522Z,70.40
2022-11-21T12:32:29.338Z,70.20
2022-11-21T12:35:16.509Z,70.90
2022-11-21T12:38:03.671Z,70.60
2022-11-21T12:41:32.581Z,71.40
2022-11-21T12:44:15.393Z,71.20
2022-11-21T12:47:12.390Z,71.20
2022-11-21T12:50:38.481Z,71.80
2022-11-21T12:53:54.498Z,71.30
2022-11-21T12:56:53.663Z,70.60
2022-11-21T12:59:22.701Z,70.80
2022-11-21T13:01:56.589Z,71.00
2022-11-21T13:04:47.178Z,71.00
2022-11-21T13:07:16.507Z,72.10
2022-11-21T13:09:50.052Z,71.30
2022-11-21T13:12:42.090Z,71.70
2022-11-21T13:15:38.433Z,71.50
2022-11-21T13:18:22.030Z,73.20
2022-11-21T13:20:53.239Z,72.80
2022-11-21T13:23:42.153Z,72.00
2022-11-21T13:26:32.059Z,73.10
2022-11-21T13:29:12.574Z,73.10
2022-11-21T13:31:44.879Z,72.40
2022-11-21T13:34:39.431Z,72.20
2022-11-21T13:37:08.390Z,72.40
2022-11-21T13:39:38.722Z,72.20
2022-11-21T13:42:35.941Z,71.80
2022-11-21T13:45:51.514Z,71.90
2022-11-21T13:48:51.626Z,73.80
2022-11-21T13:51:38.172Z,74.30
2022-11-21T13:54:25.181Z,74.50
2022-11-21T13:57:29.392Z,74.70
2022-11-21T14:00:07.474Z,73.60
2022-11-21T14:03:11.917Z,75.20
2022-11-21T14:05:51.135Z,73.50
2022-11-21T14:08:25.950Z,73.60
2022-11-21T14:10:58.100Z,73.60
2022-11-21T14:13:31.789Z,74.30
2022-11-21T14:16:25.452Z,72.50
2022-11-21T14:21:35.506Z,73.50
2022-11-21T14:24:14.539Z,72.80
2022-11-21T14:26:50.671Z,72.60
2022-11-21T14:29:39.664Z,72.80
2022-11-21T14:32:16.309Z,73.30
2022-11-21T14:34:45.304Z,73.60
2022-11-21T14:37:15.186Z,72.80
2022-11-21T14:39:45.341Z,72.80
2022-11-21T14:42:19.045Z,72.50
2022-11-21T14:44:48.081Z,72.80
2022-11-21T14:47:26.706Z,72.60
2022-11-21T14:50:02.241Z,72.90
2022-11-21T14:52:35.448Z,72.60
2022-11-21T14:55:30.172Z,72.70
2022-11-21T14:57:59.281Z,72.60
2022-11-21T15:00:58.099Z,72.30
2022-11-21T15:03:23.111Z,72.30
2022-11-21T15:06:06.318Z,72.70
2022-11-21T15:09:18.310Z,72.50
2022-11-21T15:11:35.011Z,72.50
2022-11-21T15:14:16.554Z,72.40
2022-11-21T15:16:50.171Z,74.40
2022-11-21T15:19:26.396Z,74.10
2022-11-21T15:22:01.590Z,75.00
2022-11-21T15:24:41.190Z,74.60
2022-11-21T15:27:47.148Z,74.40
2022-11-21T15:30:16.132Z,75.70
2022-11-21T15:33:06.497Z,73.60
2022-11-21T15:35:44.308Z,74.20
2022-11-21T15:38:28.443Z,73.30
2022-11-21T15:40:59.907Z,73.20
2022-11-21T15:43:45.639Z,73.60
2022-11-21T15:46:35.110Z,72.80
2022-11-21T15:49:30.933Z,72.60
2022-11-21T15:52:11.278Z,72.70
2022-11-21T15:54:40.744Z,72.60
2022-11-21T15:57:11.433Z,72.60
2022-11-21T15:59:40.848Z,72.50
2022-11-21T16:02:17.863Z,72.30
2022-11-21T16:04:46.790Z,72.30
2022-11-21T16:07:15.681Z,72.40
2022-11-21T16:09:46.057Z,72.50
2022-11-21T16:12:15.117Z,72.40
2022-11-21T16:14:44.075Z,72.40
2022-11-21T16:17:12.991Z,72.30
2022-11-21T16:19:42.104Z,72.30
2022-11-21T16:22:10.988Z,72.30
2022-11-21T16:24:39.867Z,72.20
2022-11-21T16:27:08.793Z,72.30
2022-11-21T16:29:37.780Z,72.30
2022-11-21T16:32:06.773Z,72.20
2022-11-21T16:34:35.657Z,72.20
2022-11-21T16:37:07.445Z,72.30
2022-11-21T16:39:37.060Z,72.30
2022-11-21T16:42:06.424Z,72.40
2022-11-21T16:44:35.508Z,72.50
2022-11-21T16:47:08.327Z,72.60
2022-11-21T16:49:43.944Z,72.80
2022-11-21T16:52:13.005Z,73.00
2022-11-21T16:54:42.223Z,73.10
2022-11-21T16:57:11.274Z,73.30
2022-11-21T16:59:40.186Z,73.40
2022-11-21T17:02:09.290Z,73.60
2022-11-21T17:04:38.583Z,73.70
2022-11-21T17:07:07.550Z,73.70
2022-11-21T17:09:36.641Z,74.00
2022-11-21T17:12:05.746Z,74.10
2022-11-21T17:14:34.616Z,74.10
2022-11-21T17:17:03.573Z,75.30
2022-11-21T17:19:32.568Z,75.60
2022-11-21T17:22:01.568Z,75.70
2022-11-21T17:24:30.898Z,75.30
2022-11-21T17:27:03.738Z,75.40
2022-11-21T17:29:32.947Z,75.40
2022-11-21T17:32:01.833Z,75.10
2022-11-21T17:34:33.291Z,75.20
2022-11-21T17:37:02.505Z,76.00
2022-11-21T17:39:32.052Z,75.40
2022-11-21T17:42:01.377Z,76.50
2022-11-21T17:44:31.151Z,75.90
2022-11-21T17:47:03.236Z,76.10
2022-11-21T17:49:38.047Z,76.00
2022-11-21T17:52:08.027Z,76.00
2022-11-21T17:54:37.174Z,76.10
2022-11-21T17:57:06.134Z,76.40
2022-11-21T17:59:35.790Z,76.40
2022-11-21T18:02:05.864Z,79.10
2022-11-21T18:04:35.716Z,81.00
2022-11-21T18:07:04.643Z,82.60
2022-11-21T18:09:33.661Z,80.30
2022-11-21T18:12:02.795Z,78.10
2022-11-21T18:14:32.130Z,77.80
2022-11-21T18:17:01.226Z,78.90
2022-11-21T18:19:30.810Z,78.70
2022-11-21T18:21:59.714Z,80.40
2022-11-21T18:24:30.115Z,78.30
2022-11-21T18:26:59.181Z,78.60
2022-11-21T18:29:36.344Z,79.30
2022-11-21T18:32:07.544Z,79.00
2022-11-21T18:34:36.480Z,78.40
2022-11-21T18:37:05.419Z,78.90
2022-11-21T18:39:34.301Z,79.20
2022-11-21T18:42:03.268Z,78.70
2022-11-21T18:44:32.181Z,78.30
2022-11-21T18:47:01.168Z,78.10
2022-11-21T18:49:30.189Z,78.60
2022-11-21T18:51:59.571Z,78.60
2022-11-21T18:54:28.415Z,78.90
2022-11-21T18:56:58.330Z,78.50
2022-11-21T18:59:27.692Z,78.70
2022-11-21T19:01:57.059Z,78.80
2022-11-21T19:04:26.954Z,79.30
2022-11-21T19:06:56.462Z,79.00
2022-11-21T19:09:29.523Z,78.70
2022-11-21T19:12:01.292Z,79.20
2022-11-21T19:14:30.454Z,78.40
2022-11-21T19:16:59.676Z,78.30
2022-11-21T19:19:35.032Z,78.30
2022-11-21T19:22:06.818Z,78.30
2022-11-21T19:24:35.711Z,78.30
2022-11-21T19:27:04.666Z,78.50
2022-11-21T19:29:34.256Z,78.50
2022-11-21T19:32:03.315Z,78.60
2022-11-21T19:34:32.267Z,79.30
2022-11-21T19:37:01.192Z,79.30
2022-11-21T19:39:31.543Z,81.00
2022-11-21T19:42:00.612Z,81.10
2022-11-21T19:44:29.581Z,81.70
2022-11-21T19:46:58.459Z,80.30
2022-11-21T19:49:27.573Z,80.90
2022-11-21T19:51:56.695Z,81.00
2022-11-21T19:54:25.594Z,82.00
2022-11-21T19:56:54.499Z,81.20
2022-11-21T19:59:23.845Z,80.60
2022-11-21T20:01:53.220Z,79.90
2022-11-21T20:04:22.264Z,80.10
2022-11-21T20:06:51.543Z,80.60
2022-11-21T20:09:27.648Z,80.90
2022-11-21T20:11:58.878Z,81.30
2022-11-21T20:14:27.802Z,80.40
2022-11-21T20:16:57.062Z,80.00
2022-11-21T20:19:27.820Z,80.90
2022-11-21T20:21:57.261Z,81.90
2022-11-21T20:24:26.175Z,81.40
2022-11-21T20:26:55.137Z,82.50
2022-11-21T20:29:24.086Z,82.50
2022-11-21T20:31:53.077Z,81.60
2022-11-21T20:34:22.259Z,81.50
2022-11-21T20:36:52.393Z,81.80
2022-11-21T20:39:22.605Z,81.90
2022-11-21T20:41:51.680Z,81.70
2022-11-21T20:47:11.701Z,82.70
2022-11-21T20:49:40.692Z,83.40
2022-11-21T20:54:58.424Z,82.50
2022-11-21T20:57:28.616Z,81.90
2022-11-21T20:59:57.495Z,82.00
2022-11-21T21:02:26.522Z,81.90
2022-11-21T21:04:55.465Z,82.10
2022-11-21T21:07:24.406Z,81.80
2022-11-21T21:09:54.663Z,81.80
2022-11-21T21:12:25.033Z,82.00
2022-11-21T21:14:53.922Z,82.00
2022-11-21T21:17:22.805Z,81.70
2022-11-21T21:19:51.720Z,81.60
2022-11-21T21:22:20.671Z,81.30
2022-11-21T21:24:49.594Z,81.50
2022-11-21T21:27:18.982Z,81.60
2022-11-21T21:29:47.838Z,81.70
2022-11-21T21:32:16.813Z,82.60
2022-11-21T21:34:45.766Z,82.80
2022-11-21T21:37:14.770Z,82.30
2022-11-21T21:39:43.759Z,82.20
2022-11-21T21:42:12.702Z,82.00
2022-11-21T21:44:41.580Z,81.90
2022-11-21T21:47:12.360Z,82.00
2022-11-21T21:49:42.313Z,81.90
2022-11-21T21:52:11.342Z,82.00
2022-11-21T21:54:40.574Z,82.00
2022-11-21T21:57:09.549Z,82.20
2022-11-21T21:59:38.561Z,83.30
2022-11-21T22:02:07.672Z,83.00
2022-11-21T22:04:36.596Z,83.70
2022-11-21T22:07:06.641Z,82.80
2022-11-21T22:09:35.736Z,83.10
2022-11-21T22:12:04.709Z,83.80
2022-11-21T22:14:33.655Z,83.60
2022-11-21T22:17:02.565Z,83.90
2022-11-21T22:19:31.693Z,82.90
2022-11-21T22:22:00.671Z,83.30
2022-11-21T22:24:29.597Z,83.50
2022-11-21T22:26:58.864Z,83.70
2022-11-21T22:29:27.915Z,83.90
2022-11-21T22:31:57.103Z,83.50
2022-11-21T22:34:25.999Z,83.70
2022-11-21T22:36:54.868Z,83.30
2022-11-21T22:39:23.702Z,83.60
2022-11-21T22:41:56.998Z,84.40
2022-11-21T22:44:28.885Z,84.00
2022-11-21T22:46:57.994Z,84.10
2022-11-21T22:49:27.128Z,84.00
2022-11-21T22:51:56.104Z,84.30
2022-11-21T22:54:24.997Z,84.40
2022-11-21T22:56:53.909Z,84.40
2022-11-21T22:59:22.800Z,84.30
2022-11-21T23:01:51.985Z,84.50
2022-11-21T23:04:20.937Z,85.20
2022-11-21T23:06:49.779Z,85.30
2022-11-21T23:09:18.628Z,86.20
2022-11-21T23:11:47.478Z,86.10
2022-11-21T23:14:16.364Z,85.30
2022-11-21T23:16:45.236Z,87.10
2022-11-21T23:19:14.125Z,87.00
2022-11-21T23:21:43.001Z,86.50
2022-11-21T23:24:12.071Z,86.60
2022-11-21T23:26:41.110Z,87.70
2022-11-21T23:29:10.145Z,87.50
2022-11-21T23:31:39.042Z,87.50
2022-11-21T23:34:08.126Z,86.60
2022-11-21T23:36:37.082Z,86.60
2022-11-21T23:39:06.414Z,86.60
2022-11-21T23:41:35.326Z,86.50
2022-11-21T23:44:04.432Z,86.20
2022-11-21T23:46:33.326Z,86.20
2022-11-21T23:49:02.269Z,86.00
2022-11-21T23:51:31.230Z,85.80
2022-11-21T23:54:00.156Z,86.00
2022-11-21T23:56:29.050Z,85.90
2022-11-21T23:58:57.927Z,85.70
